Time;durP1;ratioP1;P1;durP2;ratioP2;P2;SDS_P1;SDS_P2;PMS_P1;PMS_P2;Temp;Humidity;BMP_temperature;BMP_pressure;BME280_temperature;BME280_humidity;BME280_pressure;Samples;Min_cycle;Max_cycle;Signal;HPM_P1;HPM_P2
2024/04/15 00:02:16;;;;;;;6.50;1.80;;;;;;;6.96;62.13;100838.27;108799;1260;73373;-67
2024/04/15 00:04:43;;;;;;;10.50;2.40;;;;;;;6.94;62.29;100835.70;108789;1259;60000;-66
2024/04/15 00:07:10;;;;;;;10.90;2.40;;;;;;;6.90;62.15;100839.20;108738;1260;138275;-66
2024/04/15 00:09:36;;;;;;;6.00;1.80;;;;;;;6.85;62.32;100840.58;108771;1260;75504;-65
2024/04/15 00:12:03;;;;;;;8.50;2.20;;;;;;;6.80;62.46;100836.38;108701;1260;138126;-66
2024/04/15 00:14:30;;;;;;;10.50;2.50;;;;;;;6.76;62.54;100835.30;108756;1260;71711;-66
2024/04/15 00:16:56;;;;;;;8.10;2.20;;;;;;;6.70;62.62;100834.91;108642;1260;138501;-65
2024/04/15 00:19:26;;;;;;;8.40;1.90;;;;;;;6.66;62.83;100833.88;108801;1260;60029;-65
2024/04/15 00:21:52;;;;;;;13.00;2.20;;;;;;;6.61;62.98;100831.55;108778;1260;74328;-65
2024/04/15 00:24:19;;;;;;;11.00;1.90;;;;;;;6.57;63.12;100839.60;108734;1260;138943;-65
2024/04/15 00:26:46;;;;;;;11.60;2.00;;;;;;;6.55;63.39;100833.57;108801;1260;71917;-65
2024/04/15 00:29:12;;;;;;;8.40;2.20;;;;;;;6.54;63.53;100835.98;108646;1260;138832;-65
2024/04/15 00:31:39;;;;;;;8.80;2.00;;;;;;;6.55;63.70;100840.70;108764;1260;60016;-65
2024/04/15 00:34:05;;;;;;;12.00;2.00;;;;;;;6.57;63.77;100840.65;108774;1260;74270;-65
2024/04/15 00:36:32;;;;;;;9.70;2.30;;;;;;;6.61;63.99;100831.92;108680;1261;138778;-67
2024/04/15 00:38:59;;;;;;;16.30;2.00;;;;;;;6.66;64.11;100828.63;108827;1260;71195;-68
2024/04/15 00:41:25;;;;;;;10.30;2.20;;;;;;;6.69;64.10;100821.95;108679;1260;138492;-65
2024/04/15 00:43:52;;;;;;;9.10;2.40;;;;;;;6.70;64.22;100811.39;108760;1260;59860;-65
2024/04/15 00:46:18;;;;;;;9.80;2.40;;;;;;;6.72;64.27;100807.08;108801;1260;75694;-65
2024/04/15 00:48:45;;;;;;;10.60;2.40;;;;;;;6.72;64.36;100795.41;108670;1260;137707;-67
2024/04/15 00:51:12;;;;;;;6.60;2.50;;;;;;;6.73;64.37;100791.77;108820;1260;72817;-65
2024/04/15 00:53:41;;;;;;;8.90;2.10;;;;;;;6.73;64.44;100787.41;108599;1260;139309;-65
2024/04/15 00:56:07;;;;;;;8.50;1.70;;;;;;;6.72;64.54;100785.30;108691;1261;59842;-65
2024/04/15 00:58:34;;;;;;;9.70;2.10;;;;;;;6.72;64.62;100787.90;108781;1260;74796;-65
2024/04/15 01:01:01;;;;;;;12.80;2.70;;;;;;;6.74;64.79;100789.90;108633;1260;138196;-64
2024/04/15 01:03:28;;;;;;;10.20;1.90;;;;;;;6.77;64.89;100801.02;108795;1259;70674;-64
2024/04/15 01:05:54;;;;;;;13.10;2.20;;;;;;;6.79;64.97;100793.27;108672;1260;139157;-64
2024/04/15 01:08:21;;;;;;;10.90;2.60;;;;;;;6.80;65.03;100795.55;108722;1263;59918;-64
2024/04/15 01:10:47;;;;;;;9.40;2.00;;;;;;;6.83;65.09;100794.47;108645;1260;139726;-64
2024/04/15 01:13:14;;;;;;;11.70;2.00;;;;;;;6.88;65.13;100793.92;108747;1260;64949;-65
2024/04/15 01:15:40;;;;;;;8.60;1.90;;;;;;;6.91;65.12;100793.37;108803;1260;73204;-65
2024/04/15 01:18:07;;;;;;;8.30;2.10;;;;;;;6.92;65.13;100786.98;108603;1260;138145;-65
2024/04/15 01:20:34;;;;;;;9.20;2.40;;;;;;;6.94;65.22;100787.55;108720;1260;59953;-65
2024/04/15 01:23:05;;;;;;;9.80;2.30;;;;;;;6.95;65.29;100784.81;108548;1260;138458;-66
2024/04/15 01:25:32;;;;;;;9.20;1.80;;;;;;;6.97;65.47;100799.39;108783;1260;66298;-66
2024/04/15 01:27:58;;;;;;;10.80;2.10;;;;;;;6.99;65.28;100795.30;108756;1260;72657;-65
2024/04/15 01:30:25;;;;;;;9.00;1.90;;;;;;;7.01;65.48;100794.14;108722;1260;138315;-64
2024/04/15 01:32:51;;;;;;;16.40;2.60;;;;;;;7.03;65.36;100783.02;108814;1260;59932;-65
2024/04/15 01:35:19;;;;;;;14.10;2.30;;;;;;;7.03;65.39;100793.15;108699;1260;138649;-65
2024/04/15 01:37:48;;;;;;;8.60;2.10;;;;;;;7.03;65.52;100791.75;108787;1260;66180;-65
2024/04/15 01:40:15;;;;;;;9.40;2.30;;;;;;;7.04;65.49;100794.91;108716;1260;71899;-65
2024/04/15 01:42:42;;;;;;;10.20;1.80;;;;;;;7.04;65.54;100793.04;108671;1260;139373;-65
2024/04/15 01:45:08;;;;;;;8.00;2.10;;;;;;;7.06;65.61;100797.11;108768;1260;60561;-65
2024/04/15 01:47:35;;;;;;;7.90;2.10;;;;;;;7.08;65.68;100803.98;108661;1260;138520;-65
2024/04/15 01:50:01;;;;;;;10.10;2.40;;;;;;;7.09;65.68;100803.88;108707;1260;65278;-64
2024/04/15 01:52:28;;;;;;;9.60;2.30;;;;;;;7.12;65.62;100801.89;108813;1260;70751;-65
2024/04/15 01:54:55;;;;;;;10.10;2.20;;;;;;;7.14;65.69;100793.25;108617;1260;137826;-65
2024/04/15 01:57:21;;;;;;;7.00;2.10;;;;;;;7.15;65.68;100788.05;108841;1260;59950;-65
2024/04/15 01:59:48;;;;;;;10.70;2.40;;;;;;;7.16;65.61;100783.73;108632;1260;138545;-65
2024/04/15 02:02:14;;;;;;;8.30;2.30;;;;;;;7.17;65.72;100783.91;108784;1260;67302;-66
2024/04/15 02:04:41;;;;;;;10.30;2.50;;;;;;;7.18;65.72;100778.91;108792;1260;60307;-65
2024/04/15 02:07:07;;;;;;;7.60;2.00;;;;;;;7.18;65.76;100763.91;108665;1260;137883;-65
2024/04/15 02:09:34;;;;;;;14.50;2.30;;;;;;;7.18;65.75;100750.46;108792;1260;60334;-65
2024/04/15 02:12:01;;;;;;;9.70;2.20;;;;;;;7.18;65.77;100749.61;108664;1263;138063;-65
2024/04/15 02:14:27;;;;;;;8.90;2.10;;;;;;;7.18;65.77;100739.12;108808;1260;66266;-65
2024/04/15 02:16:54;;;;;;;8.80;2.30;;;;;;;7.17;65.86;100738.02;108664;1260;138827;-65
2024/04/15 02:19:20;;;;;;;10.90;2.00;;;;;;;7.15;65.92;100726.80;108808;1260;59641;-65
2024/04/15 02:21:47;;;;;;;9.10;1.90;;;;;;;7.15;65.93;100722.95;108790;1260;60042;-65
2024/04/15 02:24:14;;;;;;;9.00;2.00;;;;;;;7.14;65.94;100716.13;108690;1260;138938;-65
2024/04/15 02:26:41;;;;;;;11.50;2.10;;;;;;;7.15;66.07;100714.59;108766;1260;67438;-65
2024/04/15 02:29:07;;;;;;;10.10;2.00;;;;;;;7.17;66.13;100719.70;108663;1260;139767;-65
2024/04/15 02:31:34;;;;;;;14.00;2.00;;;;;;;7.19;66.18;100722.95;108605;1260;220689;-65
2024/04/15 02:34:01;;;;;;;8.80;2.20;;;;;;;7.20;66.14;100723.85;108727;1260;60251;-65
2024/04/15 02:36:27;;;;;;;11.70;2.20;;;;;;;7.23;66.23;100724.81;108714;1260;138689;-64
2024/04/15 02:38:54;;;;;;;14.60;2.40;;;;;;;7.23;66.27;100724.48;108813;1260;65514;-65
2024/04/15 02:41:20;;;;;;;7.50;2.20;;;;;;;7.22;66.18;100717.45;108686;1260;138374;-65
2024/04/15 02:43:47;;;;;;;12.60;2.30;;;;;;;7.21;66.21;100716.02;108799;1260;59815;-64
2024/04/15 02:46:14;;;;;;;8.80;1.80;;;;;;;7.19;66.26;100708.47;108825;1260;60008;-64
2024/04/15 02:48:40;;;;;;;7.40;2.10;;;;;;;7.19;66.29;100700.41;108655;1260;138027;-64
2024/04/15 02:51:07;;;;;;;14.90;2.30;;;;;;;7.18;66.27;100704.95;108852;1260;66447;-65
2024/04/15 02:53:33;;;;;;;7.30;2.00;;;;;;;7.18;66.31;100709.27;108660;1260;139865;-66
2024/04/15 02:56:00;;;;;;;14.40;2.60;;;;;;;7.16;66.40;100721.96;108808;1260;59779;-65
2024/04/15 02:58:27;;;;;;;9.40;2.20;;;;;;;7.16;66.33;100723.35;108807;1260;60719;-66
2024/04/15 03:00:53;;;;;;;10.00;2.40;;;;;;;7.17;66.40;100723.89;108676;1260;138359;-65
2024/04/15 03:03:20;;;;;;;8.60;2.00;;;;;;;7.16;66.41;100717.77;108773;1260;67520;-65
2024/04/15 03:05:47;;;;;;;10.10;2.50;;;;;;;7.17;66.48;100713.80;108665;1260;137949;-65
2024/04/15 03:08:13;;;;;;;8.70;2.20;;;;;;;7.18;66.50;100721.85;108738;1260;59860;-65
2024/04/15 03:10:40;;;;;;;11.60;2.30;;;;;;;7.17;66.52;100727.94;108836;1260;60286;-65
2024/04/15 03:13:06;;;;;;;13.00;2.60;;;;;;;7.17;66.62;100718.52;108612;1260;139167;-65
2024/04/15 03:15:33;;;;;;;8.80;2.40;;;;;;;7.17;66.53;100710.98;108813;1262;59976;-65
2024/04/15 03:18:00;;;;;;;9.20;2.70;;;;;;;7.15;66.59;100706.90;108692;1260;138933;-66
2024/04/15 03:20:27;;;;;;;16.30;3.10;;;;;;;7.14;66.57;100704.25;108780;1260;60152;-66
2024/04/15 03:22:54;;;;;;;9.40;2.50;;;;;;;7.14;66.71;100706.52;108686;1260;138662;-65
2024/04/15 03:25:22;;;;;;;10.20;2.30;;;;;;;7.12;66.67;100709.94;108789;1260;75664;-65
2024/04/15 03:27:48;;;;;;;9.30;2.90;;;;;;;7.11;66.69;100718.43;108779;1260;65167;-64
2024/04/15 03:30:15;;;;;;;11.70;2.10;;;;;;;7.11;66.78;100718.98;108672;1260;138924;-64
2024/04/15 03:32:42;;;;;;;15.10;2.80;;;;;;;7.12;66.76;100725.80;108789;1258;60062;-65
2024/04/15 03:35:13;;;;;;;12.70;2.10;;;;;;;7.13;66.80;100725.84;108719;1260;142153;-65
2024/04/15 03:37:41;;;;;;;12.60;2.30;;;;;;;7.13;66.83;100723.21;108803;1260;75532;-64
2024/04/15 03:40:07;;;;;;;16.00;2.30;;;;;;;7.14;66.83;100720.48;108792;1260;65396;-65
2024/04/15 03:42:34;;;;;;;10.20;2.10;;;;;;;7.16;66.84;100726.50;108705;1260;137986;-65
2024/04/15 03:45:00;;;;;;;7.40;1.90;;;;;;;7.17;66.90;100721.83;108669;1266;60009;-65
2024/04/15 03:47:27;;;;;;;9.40;2.50;;;;;;;7.17;66.84;100721.11;108658;1260;138465;-65
2024/04/15 03:49:54;;;;;;;16.20;2.60;;;;;;;7.16;66.84;100718.11;108811;1260;76897;-65
2024/04/15 03:52:20;;;;;;;9.60;2.20;;;;;;;7.16;66.89;100724.05;108720;1260;67066;-65
2024/04/15 03:54:47;;;;;;;7.90;2.10;;;;;;;7.16;66.94;100720.38;108615;1262;137826;-65
2024/04/15 03:57:13;;;;;;;8.50;1.90;;;;;;;7.16;66.86;100714.79;108801;1260;60018;-65
2024/04/15 03:59:40;;;;;;;12.00;2.80;;;;;;;7.16;66.98;100711.98;108705;1260;138337;-65
2024/04/15 04:02:07;;;;;;;15.60;2.60;;;;;;;7.17;66.94;100710.46;108788;1260;74696;-67
2024/04/15 04:04:33;;;;;;;6.90;2.30;;;;;;;7.19;67.07;100710.19;108793;1260;65056;-66
2024/04/15 04:07:03;;;;;;;13.00;2.60;;;;;;;7.20;67.08;100707.42;108629;1260;138826;-65
2024/04/15 04:09:30;;;;;;;12.20;2.10;;;;;;;7.22;67.09;100705.76;108801;1260;60076;-66
2024/04/15 04:11:56;;;;;;;8.60;2.40;;;;;;;7.25;67.06;100700.14;108667;1260;138698;-66
2024/04/15 04:14:23;;;;;;;7.50;2.20;;;;;;;7.28;67.09;100704.09;108787;1260;75321;-67
2024/04/15 04:16:50;;;;;;;11.20;2.40;;;;;;;7.30;67.13;100701.03;108605;1260;137953;-67
2024/04/15 04:19:21;;;;;;;9.60;2.30;;;;;;;7.32;67.09;100696.71;108714;1260;72173;-67
2024/04/15 04:21:48;;;;;;;10.70;2.40;;;;;;;7.35;66.98;100686.52;108632;1260;60161;-67
2024/04/15 04:24:14;;;;;;;12.90;2.90;;;;;;;7.37;67.16;100683.66;108704;1260;138539;-67
2024/04/15 04:26:41;;;;;;;8.10;2.60;;;;;;;7.40;67.20;100691.77;108805;1260;74175;-67
2024/04/15 04:29:07;;;;;;;10.70;2.60;;;;;;;7.42;67.16;100692.02;108679;1263;138519;-66
2024/04/15 04:31:34;;;;;;;12.20;2.50;;;;;;;7.45;67.24;100688.29;108804;1260;72956;-66
2024/04/15 04:34:01;;;;;;;10.10;2.40;;;;;;;7.49;67.24;100701.19;108764;1260;59780;-65
2024/04/15 04:36:28;;;;;;;10.00;2.40;;;;;;;7.54;67.18;100701.88;108682;1262;138904;-66
2024/04/15 04:38:55;;;;;;;14.60;2.30;;;;;;;7.58;67.21;100699.41;108777;1260;76096;-66
2024/04/15 04:41:22;;;;;;;9.90;2.20;;;;;;;7.63;67.19;100698.70;108710;1261;139580;-66
2024/04/15 04:43:49;;;;;;;12.20;2.60;;;;;;;7.68;67.11;100699.41;108736;1260;74171;-66
2024/04/15 04:46:16;;;;;;;7.80;2.30;;;;;;;7.73;67.11;100699.27;108803;1260;59852;-62
2024/04/15 04:48:42;;;;;;;9.90;2.30;;;;;;;7.80;67.14;100705.47;108744;1260;137817;-63
2024/04/15 04:51:09;;;;;;;10.30;2.40;;;;;;;7.87;67.11;100705.34;108772;1260;75925;-62
2024/04/15 04:53:36;;;;;;;11.70;2.70;;;;;;;7.94;66.99;100704.72;108677;1260;139148;-63
2024/04/15 04:56:10;;;;;;;10.30;2.30;;;;;;;7.99;66.90;100703.83;108733;1260;71904;-62
2024/04/15 04:58:39;;;;;;;14.10;2.70;;;;;;;8.03;66.89;100701.34;108598;1260;60092;-62
2024/04/15 05:01:18;;;;;;;8.00;2.30;;;;;;;8.08;66.76;100704.13;108630;1260;138884;-63
2024/04/15 05:03:46;;;;;;;6.80;1.90;;;;;;;8.13;66.81;100702.73;108700;1260;75394;-63
2024/04/15 05:06:13;;;;;;;11.00;2.50;;;;;;;8.20;66.75;100698.74;108606;1260;137881;-63
2024/04/15 05:08:40;;;;;;;17.80;3.60;;;;;;;8.23;66.66;100703.59;108639;1260;71502;-63
2024/04/15 05:11:06;;;;;;;11.90;2.40;;;;;;;8.28;66.56;100702.89;108559;1260;138790;-62
2024/04/15 05:13:33;;;;;;;9.50;2.80;;;;;;;8.34;66.62;100705.20;108720;1260;60579;-63
2024/04/15 05:16:07;;;;;;;14.40;3.30;;;;;;;8.40;66.52;100708.71;108763;1260;75552;-63
2024/04/15 05:18:33;;;;;;;;;;;;;;;8.43;66.43;100709.02;108578;1260;138702;-61
2024/04/15 05:21:00;;;;;;;12.40;3.10;;;;;;;8.46;66.31;100707.36;108699;1260;70924;-63
2024/04/15 05:23:27;;;;;;;11.60;3.10;;;;;;;8.52;66.32;100707.38;108469;1260;139061;-62
2024/04/15 05:25:54;;;;;;;11.60;2.50;;;;;;;8.60;66.24;100707.98;108780;1262;61850;-63
2024/04/15 05:28:21;;;;;;;12.90;2.50;;;;;;;8.67;66.12;100706.98;108815;1260;75306;-62
2024/04/15 05:30:50;;;;;;;13.60;2.50;;;;;;;8.76;66.13;100709.02;108644;1260;138556;-63
2024/04/15 05:33:17;;;;;;;8.70;2.50;;;;;;;8.88;65.95;100703.98;108758;1260;72800;-69
2024/04/15 05:35:43;;;;;;;8.40;2.20;;;;;;;8.98;65.86;100703.77;108673;1260;138388;-70
2024/04/15 05:38:10;;;;;;;12.10;2.30;;;;;;;9.11;65.68;100706.24;108770;1260;60097;-73
2024/04/15 05:40:37;;;;;;;9.70;2.50;;;;;;;9.24;65.55;100701.05;108829;1260;75555;-69
2024/04/15 05:43:07;;;;;;;14.40;2.60;;;;;;;9.41;65.40;100698.89;108676;1261;138288;-68
2024/04/15 05:45:34;;;;;;;10.50;2.50;;;;;;;9.56;65.25;100702.83;108795;1260;70966;-68
2024/04/15 05:48:01;;;;;;;14.60;3.60;;;;;;;9.76;65.29;100695.85;108649;1263;137953;-68
2024/04/15 05:50:28;;;;;;;10.90;2.60;;;;;;;9.96;64.97;100692.18;108779;1260;62151;-68
2024/04/15 05:52:55;;;;;;;12.70;4.00;;;;;;;10.13;64.59;100692.27;108699;1260;139933;-69
2024/04/15 05:55:21;;;;;;;7.70;2.10;;;;;;;10.22;64.20;100688.81;108696;1260;65228;-69
2024/04/15 05:57:48;;;;;;;8.00;2.20;;;;;;;10.31;63.80;100693.95;108731;1260;70917;-70
2024/04/15 06:00:15;;;;;;;12.80;2.80;;;;;;;10.41;63.63;100689.84;108685;1260;137963;-70
2024/04/15 06:02:41;;;;;;;6.20;2.10;;;;;;;10.50;63.32;100687.61;108626;1260;60567;-69
2024/04/15 06:05:08;;;;;;;12.40;2.70;;;;;;;10.60;63.16;100682.58;108668;1260;138187;-69
2024/04/15 06:07:35;;;;;;;12.60;2.70;;;;;;;10.71;62.90;100683.03;108721;1260;64962;-69
2024/04/15 06:10:01;;;;;;;9.30;2.50;;;;;;;10.81;62.58;100680.78;108841;1260;73932;-69
2024/04/15 06:12:31;;;;;;;10.50;2.70;;;;;;;10.87;62.21;100673.02;108681;1260;138430;-69
2024/04/15 06:14:58;;;;;;;8.40;2.30;;;;;;;10.95;62.00;100671.11;108685;1262;59931;-69
2024/04/15 06:17:25;;;;;;;8.60;2.30;;;;;;;11.04;61.72;100666.20;108665;1260;138686;-69
2024/04/15 06:19:51;;;;;;;10.80;3.00;;;;;;;11.11;61.57;100658.63;108717;1260;65872;-70
2024/04/15 06:22:18;;;;;;;10.60;2.90;;;;;;;11.24;61.34;100653.27;108814;1260;71742;-69
2024/04/15 06:24:47;;;;;;;7.90;2.80;;;;;;;11.40;61.37;100655.70;108725;1260;138466;-69
2024/04/15 06:27:14;;;;;;;10.00;3.20;;;;;;;11.59;61.18;100654.32;108786;1260;60011;-70
2024/04/15 06:29:40;;;;;;;16.40;3.20;;;;;;;11.72;60.75;100652.12;108634;1260;138434;-70
2024/04/15 06:32:07;;;;;;;9.90;2.20;;;;;;;11.81;60.43;100648.41;108782;1260;66540;-70
2024/04/15 06:34:34;;;;;;;7.10;2.30;;;;;;;11.88;59.92;100646.95;108793;1262;72393;-70
2024/04/15 06:37:00;;;;;;;10.60;2.50;;;;;;;11.99;59.75;100648.94;108709;1260;138601;-70
2024/04/15 06:39:27;;;;;;;9.80;2.60;;;;;;;12.13;59.57;100649.71;108803;1260;60086;-70
2024/04/15 06:41:54;;;;;;;7.50;2.20;;;;;;;12.37;59.49;100652.23;108704;1260;138509;-70
2024/04/15 06:44:20;;;;;;;8.00;2.30;;;;;;;12.67;59.06;100644.04;108779;1260;66040;-70
2024/04/15 06:46:47;;;;;;;10.70;2.50;;;;;;;12.87;58.51;100641.16;108783;1260;72774;-70
2024/04/15 06:49:14;;;;;;;10.00;3.20;;;;;;;13.04;58.07;100632.07;108812;1260;59978;-70
2024/04/15 06:51:40;;;;;;;10.90;2.40;;;;;;;13.22;57.81;100625.42;108721;1266;60449;-70
2024/04/15 06:54:07;;;;;;;6.90;2.70;;;;;;;13.39;57.61;100625.47;108663;1260;138443;-70
2024/04/15 06:56:34;;;;;;;9.40;2.60;;;;;;;13.55;57.34;100621.77;108747;1260;66313;-70
2024/04/15 06:59:00;;;;;;;14.00;3.70;;;;;;;13.69;56.86;100621.39;108677;1260;138357;-70
2024/04/15 07:01:27;;;;;;;7.00;2.50;;;;;;;13.68;56.10;100622.42;108792;1260;60080;-70
2024/04/15 07:03:56;;;;;;;9.90;2.30;;;;;;;13.52;55.54;100625.08;108828;1260;60470;-70
2024/04/15 07:06:24;;;;;;;8.10;2.50;;;;;;;13.39;55.32;100624.77;108685;1260;138482;-70
2024/04/15 07:08:51;;;;;;;8.30;2.20;;;;;;;13.28;55.01;100621.98;108797;1260;67520;-70
2024/04/15 07:11:17;;;;;;;6.40;2.60;;;;;;;13.06;54.59;100617.98;108654;1260;138260;-70
2024/04/15 07:13:44;;;;;;;9.10;2.50;;;;;;;12.82;54.24;100621.38;108789;1261;66582;-70
2024/04/15 07:16:11;;;;;;;12.20;3.20;;;;;;;12.64;54.30;100622.52;108843;1260;60252;-69
2024/04/15 07:18:37;;;;;;;8.90;2.30;;;;;;;12.60;54.49;100623.17;108637;1262;139005;-69
2024/04/15 07:21:04;;;;;;;7.80;2.10;;;;;;;12.60;54.67;100622.65;108767;1260;67642;-69
2024/04/15 07:23:30;;;;;;;7.60;2.40;;;;;;;12.60;54.53;100620.89;108669;1260;138754;-70
2024/04/15 07:26:00;;;;;;;5.60;2.50;;;;;;;12.49;53.96;100620.38;108773;1260;59921;-70
2024/04/15 07:28:27;;;;;;;7.80;2.20;;;;;;;12.39;54.13;100622.69;108712;1263;60992;-70
2024/04/15 07:31:00;;;;;;;8.60;2.10;;;;;;;12.46;53.90;100625.27;108720;1260;138179;-70
2024/04/15 07:33:27;;;;;;;10.20;2.90;;;;;;;12.54;53.66;100627.30;108824;1260;66043;-70
2024/04/15 07:35:57;;;;;;;9.90;2.30;;;;;;;12.54;53.19;100623.61;108681;1260;138802;-70
2024/04/15 07:38:24;;;;;;;7.00;2.40;;;;;;;12.61;53.17;100622.32;108805;1260;60177;-70
2024/04/15 07:40:50;;;;;;;5.80;2.10;;;;;;;12.64;52.50;100621.83;108696;1260;138412;-70
2024/04/15 07:43:17;;;;;;;8.30;2.00;;;;;;;12.47;52.01;100624.39;108719;1260;75381;-70
2024/04/15 07:45:44;;;;;;;7.40;1.80;;;;;;;12.30;52.12;100622.55;108836;1260;67300;-70
2024/04/15 07:48:11;;;;;;;6.80;1.60;;;;;;;12.32;52.57;100620.45;108654;1260;138007;-69
2024/04/15 07:50:37;;;;;;;8.30;2.30;;;;;;;12.46;52.48;100622.79;108682;1260;60055;-70
2024/04/15 07:53:04;;;;;;;7.00;2.20;;;;;;;12.63;52.15;100628.86;108690;1260;138178;-69
2024/04/15 07:55:30;;;;;;;5.30;1.70;;;;;;;12.78;52.07;100627.66;108800;1260;74212;-70
2024/04/15 07:57:57;;;;;;;5.90;1.80;;;;;;;12.96;51.91;100623.67;108789;1260;66325;-69
2024/04/15 08:00:24;;;;;;;5.80;2.10;;;;;;;13.16;51.55;100619.70;108649;1260;138542;-69
2024/04/15 08:02:50;;;;;;;7.20;2.20;;;;;;;13.27;50.67;100619.13;108803;1260;59748;-69
2024/04/15 08:05:17;;;;;;;5.40;2.30;;;;;;;13.28;50.80;100621.62;108644;1260;138577;-69
2024/04/15 08:07:44;;;;;;;6.60;2.30;;;;;;;13.46;50.75;100619.39;108798;1260;74373;-69
2024/04/15 08:10:11;;;;;;;7.00;2.30;;;;;;;13.68;50.45;100615.91;108842;1260;67137;-69
2024/04/15 08:12:37;;;;;;;10.10;2.00;;;;;;;13.78;49.66;100618.14;108678;1260;137923;-69
2024/04/15 08:15:04;;;;;;;6.70;1.70;;;;;;;13.70;49.06;100619.27;108777;1260;60032;-69
2024/04/15 08:17:31;;;;;;;6.20;1.80;;;;;;;13.55;49.12;100616.66;108687;1263;138116;-69
2024/04/15 08:19:57;;;;;;;8.30;1.70;;;;;;;13.56;49.32;100615.79;108799;1260;75804;-70
2024/04/15 08:22:24;;;;;;;5.60;2.10;;;;;;;13.75;49.57;100617.92;108714;1260;66813;-70
2024/04/15 08:24:50;;;;;;;5.50;1.80;;;;;;;13.86;48.89;100616.44;108588;1262;139005;-70
2024/04/15 08:27:17;;;;;;;6.80;2.40;;;;;;;13.86;48.40;100618.20;108766;1260;59801;-70
2024/04/15 08:29:44;;;;;;;6.60;2.20;;;;;;;13.84;48.12;100616.07;108662;1260;138752;-70
2024/04/15 08:32:10;;;;;;;4.00;1.50;;;;;;;13.88;47.91;100615.40;108813;1260;75192;-69
2024/04/15 08:34:37;;;;;;;6.10;1.70;;;;;;;13.95;48.00;100613.54;108786;1260;64755;-69
2024/04/15 08:37:04;;;;;;;7.50;2.10;;;;;;;14.00;47.97;100609.68;108624;1263;138494;-69
2024/04/15 08:39:32;;;;;;;3.90;1.50;;;;;;;14.03;48.03;100605.48;108797;1260;70163;-70
2024/04/15 08:42:05;;;;;;;8.70;2.10;;;;;;;14.12;48.03;100605.90;108684;1260;137681;-70
2024/04/15 08:44:32;;;;;;;3.90;1.50;;;;;;;14.17;47.52;100607.53;108639;1260;75196;-70
2024/04/15 08:46:58;;;;;;;7.90;2.70;;;;;;;14.16;47.29;100605.76;108688;1260;138853;-70
2024/04/15 08:49:25;;;;;;;5.00;1.60;;;;;;;14.24;46.98;100602.99;108765;1260;71531;-69
2024/04/15 08:51:51;;;;;;;8.30;1.80;;;;;;;14.26;46.76;100601.95;108708;1260;60145;-69
2024/04/15 08:54:18;;;;;;;5.20;2.10;;;;;;;14.27;46.75;100599.31;108555;1260;138326;-69
2024/04/15 08:56:45;;;;;;;4.10;1.50;;;;;;;14.17;46.31;100595.70;108811;1264;74215;-69
2024/04/15 08:59:13;;;;;;;5.80;1.70;;;;;;;14.16;46.67;100587.94;108701;1260;138336;-69
2024/04/15 09:01:40;;;;;;;8.40;1.50;;;;;;;14.37;46.80;100585.96;108731;1261;72772;-69
2024/04/15 09:04:07;;;;;;;2.70;1.60;;;;;;;14.65;46.53;100581.58;108835;1260;59902;-69
2024/04/15 09:06:33;;;;;;;4.00;1.40;;;;;;;14.90;46.35;100583.30;108697;1260;139258;-68
2024/04/15 09:09:00;;;;;;;5.30;1.90;;;;;;;15.08;45.89;100573.82;108792;1260;76487;-68
2024/04/15 09:11:26;;;;;;;6.00;1.70;;;;;;;15.28;45.80;100564.88;108659;1260;138019;-68
2024/04/15 09:13:53;;;;;;;6.80;2.20;;;;;;;15.42;45.54;100566.16;108617;1260;73000;-69
2024/04/15 09:16:20;;;;;;;7.50;2.00;;;;;;;15.38;44.98;100568.27;108701;1260;60147;-69
2024/04/15 09:18:46;;;;;;;7.10;2.70;;;;;;;15.26;44.66;100564.70;108558;1259;138060;-68
2024/04/15 09:21:13;;;;;;;8.90;1.90;;;;;;;15.22;44.86;100566.83;108713;1260;74222;-68
2024/04/15 09:23:40;;;;;;;5.40;1.80;;;;;;;15.10;44.46;100568.70;108668;1260;138054;-68
2024/04/15 09:26:07;;;;;;;4.60;1.90;;;;;;;14.80;44.14;100568.94;108689;1260;73664;-68
2024/04/15 09:28:33;;;;;;;8.20;2.00;;;;;;;14.50;43.88;100568.59;108818;1260;59887;-68
2024/04/15 09:31:00;;;;;;;5.80;2.10;;;;;;;14.20;43.95;100565.73;108709;1260;138053;-69
2024/04/15 09:33:27;;;;;;;6.60;1.90;;;;;;;14.05;44.14;100558.55;108777;1260;74726;-69
2024/04/15 09:35:54;;;;;;;5.80;1.60;;;;;;;14.02;44.37;100561.02;108683;1260;138701;-68
2024/04/15 09:38:21;;;;;;;4.80;1.80;;;;;;;14.06;44.43;100565.96;108789;1260;71451;-68
2024/04/15 09:40:48;;;;;;;7.30;1.90;;;;;;;13.95;44.08;100557.60;108689;1260;59837;-68
2024/04/15 09:43:14;;;;;;;6.20;2.10;;;;;;;13.81;44.21;100552.90;108760;1260;60224;-68
2024/04/15 09:45:41;;;;;;;4.40;1.80;;;;;;;13.85;44.18;100550.28;108617;1260;76577;-68
2024/04/15 09:48:10;;;;;;;6.60;2.10;;;;;;;14.07;44.54;100552.39;108634;1260;138073;-68
2024/04/15 09:50:38;;;;;;;4.90;1.70;;;;;;;14.46;44.61;100548.60;108659;1260;72667;-68
2024/04/15 09:53:05;;;;;;;7.50;2.20;;;;;;;14.76;44.23;100555.33;108577;1260;137978;-68
2024/04/15 09:55:36;;;;;;;2.80;1.40;;;;;;;14.92;43.81;100547.27;108759;1260;59793;-68
2024/04/15 09:58:03;;;;;;;3.70;1.70;;;;;;;14.90;43.52;100547.97;108827;1260;74353;-68
2024/04/15 10:00:30;;;;;;;5.20;1.80;;;;;;;14.70;43.14;100553.00;108667;1260;138383;-68
2024/04/15 10:03:07;;;;;;;4.60;1.80;;;;;;;14.49;43.28;100548.09;108726;1260;71472;-68
2024/04/15 10:05:39;;;;;;;9.10;1.50;;;;;;;14.33;43.30;100547.64;108678;1264;138616;-70
2024/04/15 10:08:06;;;;;;;6.20;1.60;;;;;;;14.18;43.35;100540.13;108715;1260;61193;-68
2024/04/15 10:10:33;;;;;;;3.10;1.40;;;;;;;14.15;43.51;100537.98;108858;1260;76533;-68
2024/04/15 10:13:02;;;;;;;5.40;1.60;;;;;;;14.13;42.83;100543.09;108544;1260;138307;-68
2024/04/15 10:15:28;;;;;;;7.00;1.50;;;;;;;14.10;42.68;100535.83;108797;1260;73594;-68
2024/04/15 10:17:58;;;;;;;7.20;1.60;;;;;;;14.10;42.73;100532.65;108680;1260;138087;-68
2024/04/15 10:20:37;;;;;;;6.00;1.60;;;;;;;14.25;43.03;100526.40;108805;1260;61413;-69
2024/04/15 10:23:07;;;;;;;4.50;1.80;;;;;;;14.50;42.92;100523.02;108704;1260;138256;-69
2024/04/15 10:25:37;;;;;;;2.80;1.30;;;;;;;14.63;42.37;100528.07;108829;1260;67387;-69
2024/04/15 10:28:07;;;;;;;4.10;1.60;;;;;;;14.70;42.22;100530.02;108846;1260;73557;-69
2024/04/15 10:30:36;;;;;;;3.90;1.50;;;;;;;14.74;41.81;100526.18;108699;1260;138470;-69
2024/04/15 10:33:04;;;;;;;3.20;1.30;;;;;;;14.85;42.03;100520.91;108718;1260;60552;-69
2024/04/15 10:35:35;;;;;;;6.20;1.60;;;;;;;15.00;42.01;100513.38;108674;1260;138583;-69
2024/04/15 10:38:03;;;;;;;5.40;1.60;;;;;;;15.13;41.82;100511.64;108802;1260;64814;-69
2024/04/15 10:40:36;;;;;;;4.40;1.40;;;;;;;15.17;41.50;100506.69;108757;1260;73379;-69
2024/04/15 10:43:03;;;;;;;4.90;1.90;;;;;;;15.17;41.22;100506.17;108697;1260;138073;-69
2024/04/15 10:45:31;;;;;;;5.70;1.70;;;;;;;15.22;41.27;100498.05;108789;1260;61052;-69
2024/04/15 10:47:57;;;;;;;5.80;1.90;;;;;;;15.27;41.17;100490.81;108706;1260;138495;-69
2024/04/15 10:50:24;;;;;;;4.10;1.30;;;;;;;15.33;41.07;100483.73;108722;1260;66293;-69
2024/04/15 10:52:51;;;;;;;5.40;1.60;;;;;;;15.40;40.94;100478.63;108679;1260;138482;-69
2024/04/15 10:55:20;;;;;;;2.80;1.40;;;;;;;15.43;40.65;100470.67;108830;1260;60079;-69
2024/04/15 10:57:49;;;;;;;5.10;1.70;;;;;;;15.48;40.65;100465.72;108814;1262;59958;-69
2024/04/15 11:00:16;;;;;;;4.20;1.50;;;;;;;15.57;40.15;100465.37;108668;1260;138003;-69
2024/04/15 11:02:45;;;;;;;3.80;1.60;;;;;;;15.60;39.65;100462.18;108800;1260;64831;-69
2024/04/15 11:05:13;;;;;;;3.60;1.20;;;;;;;15.59;39.46;100461.30;108700;1260;138221;-69
2024/04/15 11:07:43;;;;;;;2.70;1.50;;;;;;;15.63;39.43;100456.88;108709;1266;59896;-70
2024/04/15 11:10:11;;;;;;;4.20;2.00;;;;;;;15.71;39.50;100455.30;108725;1260;60324;-69
2024/04/15 11:12:38;;;;;;;6.30;1.70;;;;;;;15.80;39.32;100463.09;108665;1260;138002;-70
2024/04/15 11:15:09;;;;;;;6.70;2.20;;;;;;;15.86;39.38;100463.96;108662;1260;65462;-70